createdAt,value
2019-01-15T00:02:38.665Z,9.70
2019-01-15T00:05:43.494Z,8.30
2019-01-15T00:08:48.297Z,9.07
2019-01-15T00:11:53.901Z,14.73
2019-01-15T00:14:58.740Z,13.60
2019-01-15T00:18:03.670Z,15.43
2019-01-15T00:21:08.547Z,15.30
2019-01-15T00:24:13.407Z,13.05
2019-01-15T00:27:18.273Z,9.67
2019-01-15T00:30:23.086Z,13.13
2019-01-15T00:33:27.904Z,15.80
2019-01-15T00:36:32.709Z,15.13
2019-01-15T00:39:37.540Z,23.07
2019-01-15T00:42:42.378Z,12.27
2019-01-15T00:45:47.934Z,8.35
2019-01-15T00:48:53.272Z,16.53
2019-01-15T00:51:58.095Z,12.37
2019-01-15T00:55:02.953Z,10.27
2019-01-15T00:58:07.799Z,10.23
2019-01-15T01:01:12.705Z,8.97
2019-01-15T01:04:17.540Z,13.90
2019-01-15T01:07:22.437Z,10.37
2019-01-15T01:10:27.287Z,14.73
2019-01-15T01:13:32.113Z,12.87
2019-01-15T01:16:36.973Z,13.97
2019-01-15T01:19:42.265Z,14.47
2019-01-15T01:22:47.142Z,8.17
2019-01-15T01:25:51.946Z,14.93
2019-01-15T01:28:56.781Z,13.60
2019-01-15T01:32:01.630Z,11.00
2019-01-15T01:35:07.046Z,17.67
2019-01-15T01:38:11.849Z,15.20
2019-01-15T01:41:16.711Z,14.43
2019-01-15T01:44:21.518Z,12.07
2019-01-15T01:47:26.370Z,15.03
2019-01-15T01:50:31.217Z,14.80
2019-01-15T01:53:36.057Z,14.00
2019-01-15T01:56:40.949Z,15.80
2019-01-15T01:59:45.773Z,16.07
2019-01-15T02:02:50.611Z,16.67
2019-01-15T02:05:56.226Z,16.27
2019-01-15T02:09:01.103Z,11.53
2019-01-15T02:12:07.746Z,13.78
2019-01-15T02:15:15.529Z,11.97
2019-01-15T02:18:20.397Z,19.87
2019-01-15T02:21:25.234Z,12.27
2019-01-15T02:24:30.329Z,18.13
2019-01-15T02:27:35.614Z,17.00
2019-01-15T02:30:40.435Z,17.17
2019-01-15T02:33:45.272Z,10.28
2019-01-15T02:36:50.096Z,14.10
2019-01-15T02:39:54.906Z,16.43
2019-01-15T02:42:59.787Z,12.77
2019-01-15T02:46:04.733Z,13.30
2019-01-15T02:49:09.558Z,14.70
2019-01-15T02:52:14.377Z,15.87
2019-01-15T02:55:19.202Z,10.10
2019-01-15T02:58:24.060Z,13.00
2019-01-15T03:01:28.982Z,11.87
2019-01-15T03:04:33.910Z,16.43
2019-01-15T03:07:38.752Z,13.53
2019-01-15T03:10:43.658Z,12.37
2019-01-15T03:13:48.495Z,10.47
2019-01-15T03:16:53.314Z,17.13
2019-01-15T03:19:58.163Z,9.77
2019-01-15T03:23:03.020Z,18.60
2019-01-15T03:26:07.915Z,16.50
2019-01-15T03:29:12.756Z,15.40
2019-01-15T03:32:17.689Z,16.10
2019-01-15T03:35:22.532Z,13.73
2019-01-15T03:38:27.386Z,15.40
2019-01-15T03:41:32.221Z,13.10
2019-01-15T03:44:37.045Z,14.80
2019-01-15T03:47:41.871Z,12.40
2019-01-15T03:50:46.717Z,14.57
2019-01-15T03:53:51.545Z,10.00
2019-01-15T03:56:56.974Z,16.50
2019-01-15T04:00:01.909Z,18.37
2019-01-15T04:03:06.801Z,17.47
2019-01-15T04:06:11.609Z,15.90
2019-01-15T04:09:16.459Z,13.93
2019-01-15T04:12:21.298Z,15.37
2019-01-15T04:15:26.131Z,20.07
2019-01-15T04:18:32.001Z,11.63
2019-01-15T04:21:36.849Z,18.23
2019-01-15T04:24:41.758Z,19.20
2019-01-15T04:27:46.641Z,18.73
2019-01-15T04:30:51.527Z,16.00
2019-01-15T04:33:56.340Z,20.70
2019-01-15T04:37:01.165Z,14.37
2019-01-15T04:40:11.667Z,16.70
2019-01-15T04:43:19.863Z,16.47
2019-01-15T04:46:23.089Z,13.50
2019-01-15T04:49:28.008Z,13.70
2019-01-15T04:52:32.925Z,9.00
2019-01-15T04:55:37.721Z,12.57
2019-01-15T04:58:42.557Z,11.53
2019-01-15T05:01:47.408Z,11.00
2019-01-15T05:04:52.270Z,18.47
2019-01-15T05:07:57.155Z,12.80
2019-01-15T05:11:01.985Z,13.83
2019-01-15T05:14:06.803Z,21.00
2019-01-15T05:17:11.755Z,17.23
2019-01-15T05:20:19.734Z,11.80
2019-01-15T05:23:24.591Z,11.97
2019-01-15T05:26:29.481Z,13.70
2019-01-15T05:29:34.289Z,12.80
2019-01-15T05:32:39.132Z,8.90
2019-01-15T05:35:44.043Z,15.67
2019-01-15T05:38:48.893Z,14.03
2019-01-15T05:41:53.735Z,15.60
2019-01-15T05:44:59.619Z,11.27
2019-01-15T05:48:06.724Z,9.50
2019-01-15T05:51:13.196Z,9.90
2019-01-15T05:54:18.102Z,16.63
2019-01-15T05:57:22.926Z,11.47
2019-01-15T06:00:27.763Z,12.80
2019-01-15T06:03:32.593Z,15.33
2019-01-15T06:06:37.434Z,13.20
2019-01-15T06:09:42.286Z,11.57
2019-01-15T06:12:47.116Z,12.07
2019-01-15T06:15:51.953Z,12.40
2019-01-15T06:18:57.166Z,12.47
2019-01-15T06:22:01.982Z,8.80
2019-01-15T06:25:08.346Z,7.37
2019-01-15T06:28:13.179Z,8.60
2019-01-15T06:31:18.505Z,7.60
2019-01-15T06:34:23.371Z,10.37
2019-01-15T06:37:28.194Z,10.43
2019-01-15T06:40:33.022Z,12.50
2019-01-15T06:43:37.837Z,12.37
2019-01-15T06:46:42.695Z,12.90
2019-01-15T06:49:47.499Z,8.30
2019-01-15T06:52:52.724Z,11.23
2019-01-15T06:55:57.529Z,7.27
2019-01-15T06:59:02.380Z,8.67
2019-01-15T07:02:07.264Z,6.63
2019-01-15T07:05:12.152Z,14.73
2019-01-15T07:08:16.977Z,7.73
2019-01-15T07:11:21.796Z,8.80
2019-01-15T07:14:26.644Z,8.67
2019-01-15T07:17:31.735Z,9.87
2019-01-15T07:20:36.566Z,7.50
2019-01-15T07:23:41.385Z,17.37
2019-01-15T07:26:46.238Z,11.20
2019-01-15T07:29:51.070Z,10.00
2019-01-15T07:32:55.900Z,8.10
2019-01-15T07:36:00.738Z,8.90
2019-01-15T07:39:07.862Z,10.03
2019-01-15T07:42:12.679Z,8.77
2019-01-15T07:45:17.494Z,5.87
2019-01-15T07:48:22.357Z,12.10
2019-01-15T07:51:27.198Z,8.33
2019-01-15T07:54:32.025Z,8.90
2019-01-15T07:57:37.684Z,9.60
2019-01-15T08:00:42.587Z,9.20
2019-01-15T08:03:47.418Z,10.43
2019-01-15T08:06:52.273Z,14.80
2019-01-15T08:09:57.188Z,9.70
2019-01-15T08:13:02.039Z,10.00
2019-01-15T08:16:07.915Z,11.10
2019-01-15T08:19:12.844Z,7.83
2019-01-15T08:22:17.744Z,5.27
2019-01-15T08:25:23.517Z,9.60
2019-01-15T08:28:28.602Z,7.83
2019-01-15T08:31:33.406Z,10.77
2019-01-15T08:34:38.254Z,7.50
2019-01-15T08:37:43.097Z,7.13
2019-01-15T08:40:47.975Z,12.63
2019-01-15T08:43:52.814Z,11.33
2019-01-15T08:46:57.666Z,6.77
2019-01-15T08:50:02.677Z,6.10
2019-01-15T08:53:07.531Z,4.67
2019-01-15T08:56:12.719Z,9.60
2019-01-15T08:59:17.549Z,8.53
2019-01-15T09:02:22.402Z,7.20
2019-01-15T09:05:27.211Z,6.30
2019-01-15T09:08:32.123Z,9.40
2019-01-15T09:11:36.938Z,9.97
2019-01-15T09:14:41.755Z,5.97
2019-01-15T09:17:46.585Z,10.20
2019-01-15T09:20:51.413Z,14.13
2019-01-15T09:23:56.255Z,9.03
2019-01-15T09:27:01.067Z,12.47
2019-01-15T09:30:20.279Z,9.30
2019-01-15T09:33:25.089Z,6.00
2019-01-15T09:36:29.930Z,8.63
2019-01-15T09:39:34.751Z,13.93
2019-01-15T09:42:39.606Z,11.07
2019-01-15T09:45:44.586Z,8.33
2019-01-15T09:48:49.423Z,9.97
2019-01-15T09:51:54.249Z,9.60
2019-01-15T09:54:59.110Z,7.70
2019-01-15T09:58:04.758Z,11.30
2019-01-15T10:01:09.651Z,6.37
2019-01-15T10:04:14.476Z,9.23
2019-01-15T10:07:19.354Z,13.33
2019-01-15T10:10:24.194Z,10.83
2019-01-15T10:13:29.055Z,8.03
2019-01-15T10:16:34.141Z,5.60
2019-01-15T10:19:38.992Z,9.43
2019-01-15T10:22:43.942Z,12.00
2019-01-15T10:25:48.811Z,9.67
2019-01-15T10:28:53.662Z,7.53
2019-01-15T10:32:17.707Z,8.63
2019-01-15T10:35:34.594Z,11.00
2019-01-15T10:38:39.438Z,14.77
2019-01-15T10:41:44.259Z,7.30
2019-01-15T10:44:49.091Z,6.60
2019-01-15T10:47:53.996Z,6.50
2019-01-15T10:50:58.911Z,9.23
2019-01-15T10:54:03.887Z,9.95
2019-01-15T10:57:08.749Z,9.13
2019-01-15T11:00:14.423Z,11.03
2019-01-15T11:03:19.273Z,9.40
2019-01-15T11:06:24.093Z,6.63
2019-01-15T11:09:28.938Z,10.07
2019-01-15T11:12:33.820Z,7.27
2019-01-15T11:15:43.128Z,8.90
2019-01-15T11:18:45.152Z,7.30
2019-01-15T11:21:49.985Z,9.37
2019-01-15T11:24:55.751Z,10.07
2019-01-15T11:28:00.583Z,9.70
2019-01-15T11:31:05.442Z,11.20
2019-01-15T11:34:10.403Z,13.77
2019-01-15T11:37:15.235Z,8.93
2019-01-15T11:40:20.159Z,13.23
2019-01-15T11:43:25.786Z,9.43
2019-01-15T11:46:30.658Z,9.90
2019-01-15T11:49:35.498Z,12.33
2019-01-15T11:52:40.353Z,11.93
2019-01-15T11:55:45.223Z,12.47
2019-01-15T11:58:50.850Z,9.00
2019-01-15T12:01:56.332Z,9.93
2019-01-15T12:05:08.622Z,12.60
2019-01-15T12:08:23.874Z,13.77
2019-01-15T12:11:36.082Z,15.87
2019-01-15T12:14:48.621Z,15.43
2019-01-15T12:18:11.097Z,12.80
2019-01-15T12:21:17.594Z,14.77
2019-01-15T12:24:29.981Z,17.77
2019-01-15T12:27:45.474Z,12.07
2019-01-15T12:30:54.661Z,14.53
2019-01-15T12:34:17.322Z,11.93
2019-01-15T12:37:41.912Z,14.33
2019-01-15T12:40:49.895Z,13.23
2019-01-15T12:44:14.186Z,16.23
2019-01-15T12:47:20.687Z,14.40
2019-01-15T12:50:46.787Z,14.90
2019-01-15T12:53:59.122Z,12.27
2019-01-15T12:57:18.834Z,11.53
2019-01-15T13:00:36.162Z,13.80
2019-01-15T13:03:45.319Z,15.77
2019-01-15T13:06:58.309Z,16.07
2019-01-15T13:10:17.686Z,13.10
2019-01-15T13:13:40.278Z,17.60
2019-01-15T13:16:46.745Z,14.30
2019-01-15T13:20:04.208Z,19.57
2019-01-15T13:23:22.787Z,16.57
2019-01-15T13:26:44.285Z,19.83
2019-01-15T13:29:59.854Z,25.23
2019-01-15T13:33:18.470Z,25.27
2019-01-15T13:36:27.922Z,22.00
2019-01-15T13:39:34.430Z,21.17
2019-01-15T13:42:40.935Z,23.37
2019-01-15T13:46:05.274Z,20.17
2019-01-15T13:49:14.492Z,22.93
2019-01-15T13:52:21.100Z,24.10
2019-01-15T13:55:36.823Z,27.27
2019-01-15T13:58:52.248Z,23.30
2019-01-15T14:02:01.667Z,26.67
2019-01-15T14:05:09.458Z,26.00
2019-01-15T14:08:31.871Z,20.70
2019-01-15T14:11:53.381Z,27.67
2019-01-15T14:15:16.030Z,21.17
2019-01-15T14:18:22.606Z,22.40
2019-01-15T14:21:45.098Z,24.63
2019-01-15T14:24:58.301Z,22.53
2019-01-15T14:28:08.574Z,24.20
2019-01-15T14:31:20.796Z,20.10
2019-01-15T14:34:43.560Z,20.62
2019-01-15T14:38:08.143Z,25.30
2019-01-15T14:41:17.330Z,24.37
2019-01-15T14:44:26.546Z,22.10
2019-01-15T14:47:41.979Z,20.77
2019-01-15T14:51:04.709Z,21.55
2019-01-15T14:54:27.235Z,21.30
2019-01-15T14:57:45.692Z,21.63
2019-01-15T15:01:08.016Z,22.43
2019-01-15T15:04:23.230Z,24.43
2019-01-15T15:07:38.511Z,19.77
2019-01-15T15:10:45.047Z,20.27
2019-01-15T15:13:51.785Z,22.83
2019-01-15T15:16:58.992Z,21.77
2019-01-15T15:20:09.869Z,21.47
2019-01-15T15:23:22.331Z,21.50
2019-01-15T15:26:28.925Z,22.23
2019-01-15T15:29:39.070Z,25.20
2019-01-15T15:32:45.879Z,21.57
2019-01-15T15:35:55.189Z,22.43
2019-01-15T15:39:10.444Z,22.80
2019-01-15T15:42:26.185Z,25.13
2019-01-15T15:45:44.745Z,26.47
2019-01-15T15:48:57.543Z,27.35
2019-01-15T15:52:19.414Z,31.23
2019-01-15T15:55:26.190Z,24.77
2019-01-15T15:58:38.351Z,31.90
2019-01-15T16:01:50.869Z,33.00
2019-01-15T16:04:57.486Z,31.23
2019-01-15T16:08:09.642Z,31.17
2019-01-15T16:11:22.101Z,34.33
2019-01-15T16:14:40.581Z,32.27
2019-01-15T16:17:52.734Z,31.93
2019-01-15T16:21:02.152Z,37.67
2019-01-15T16:24:23.738Z,31.97
2019-01-15T16:27:35.966Z,33.40
2019-01-15T16:30:42.439Z,33.20
2019-01-15T16:33:49.896Z,35.10
2019-01-15T16:37:12.775Z,34.50
2019-01-15T16:40:22.403Z,30.40
2019-01-15T16:43:28.877Z,31.40
2019-01-15T16:46:51.649Z,27.53
2019-01-15T16:49:58.129Z,27.58
2019-01-15T16:53:04.673Z,30.33
2019-01-15T16:56:26.546Z,32.75
2019-01-15T16:59:38.758Z,32.73
2019-01-15T17:02:57.695Z,31.63
2019-01-15T17:06:04.267Z,25.20
2019-01-15T17:09:16.946Z,26.53
2019-01-15T17:12:29.354Z,31.30
2019-01-15T17:15:52.168Z,25.83
2019-01-15T17:19:14.967Z,27.13
2019-01-15T17:22:24.361Z,27.33
2019-01-15T17:25:40.914Z,22.70
2019-01-15T17:28:56.117Z,22.27
2019-01-15T17:32:02.614Z,21.97
2019-01-15T17:35:18.057Z,25.33
2019-01-15T17:38:39.250Z,19.03
2019-01-15T17:41:51.622Z,22.20
2019-01-15T17:45:04.034Z,25.77
2019-01-15T17:48:10.894Z,26.70
2019-01-15T17:51:23.313Z,19.53
2019-01-15T17:54:45.895Z,20.60
2019-01-15T17:57:55.268Z,17.17
2019-01-15T18:01:17.909Z,16.60
2019-01-15T18:04:40.767Z,20.25
2019-01-15T18:07:59.090Z,19.83
2019-01-15T18:11:21.851Z,19.07
2019-01-15T18:14:28.360Z,18.07
2019-01-15T18:17:50.839Z,18.00
2019-01-15T18:21:06.403Z,17.93
2019-01-15T18:24:16.330Z,19.13
2019-01-15T18:27:22.794Z,16.83
2019-01-15T18:30:31.964Z,18.13
2019-01-15T18:33:41.138Z,17.73
2019-01-15T18:37:03.673Z,20.30
2019-01-15T18:40:20.622Z,17.43
2019-01-15T18:43:30.133Z,16.43
2019-01-15T18:46:39.522Z,18.13
2019-01-15T18:49:48.920Z,16.00
2019-01-15T18:53:12.193Z,16.37
2019-01-15T18:56:21.605Z,17.63
2019-01-15T18:59:28.061Z,15.00
2019-01-15T19:02:49.351Z,17.40
2019-01-15T19:06:01.354Z,15.93
2019-01-15T19:09:23.818Z,17.00
2019-01-15T19:12:46.350Z,15.57
2019-01-15T19:15:55.983Z,13.40
2019-01-15T19:19:02.494Z,14.90
2019-01-15T19:22:11.676Z,14.53
2019-01-15T19:25:27.194Z,15.53
2019-01-15T19:28:45.429Z,14.37
2019-01-15T19:31:51.924Z,15.30
2019-01-15T19:34:58.544Z,16.57
2019-01-15T19:38:05.758Z,16.12
2019-01-15T19:41:30.148Z,15.25
2019-01-15T19:44:36.577Z,16.55
2019-01-15T19:48:00.967Z,20.47
2019-01-15T19:51:16.155Z,16.67
2019-01-15T19:54:31.179Z,18.07
2019-01-15T19:57:43.712Z,15.73
2019-01-15T20:00:51.108Z,17.30
2019-01-15T20:04:00.715Z,15.80
2019-01-15T20:07:13.415Z,16.10
2019-01-15T20:10:20.010Z,17.27
2019-01-15T20:13:26.675Z,17.27
2019-01-15T20:16:35.884Z,18.03
2019-01-15T20:19:45.066Z,20.93
2019-01-15T20:22:57.984Z,18.27
2019-01-15T20:26:07.400Z,18.60
2019-01-15T20:29:31.776Z,19.17
2019-01-15T20:32:55.900Z,18.63
2019-01-15T20:36:11.231Z,18.53
2019-01-15T20:39:23.698Z,18.73
2019-01-15T20:42:38.958Z,17.07
2019-01-15T20:46:01.377Z,17.90
2019-01-15T20:49:24.013Z,17.93
2019-01-15T20:52:36.538Z,17.87
2019-01-15T20:56:01.209Z,17.75
2019-01-15T20:59:08.214Z,18.33
2019-01-15T21:02:14.681Z,17.33
2019-01-15T21:05:21.213Z,17.70
2019-01-15T21:08:30.505Z,18.67
2019-01-15T21:11:42.842Z,14.83
2019-01-15T21:14:50.230Z,15.80
2019-01-15T21:17:59.631Z,17.37
2019-01-15T21:21:06.293Z,15.33
2019-01-15T21:24:15.707Z,14.70
2019-01-15T21:27:25.101Z,14.53
2019-01-15T21:30:50.703Z,14.20
2019-01-15T21:34:04.847Z,13.63
2019-01-15T21:37:14.001Z,13.60
2019-01-15T21:40:36.474Z,12.90
2019-01-15T21:43:59.042Z,13.17
2019-01-15T21:47:05.630Z,12.70
2019-01-15T21:50:14.846Z,12.17
2019-01-15T21:53:24.022Z,12.03
2019-01-15T21:56:33.442Z,12.00
2019-01-15T21:59:40.007Z,11.90
2019-01-15T22:03:01.328Z,11.87
2019-01-15T22:06:25.415Z,11.67
2019-01-15T22:09:48.025Z,11.67
2019-01-15T22:13:10.683Z,12.83
2019-01-15T22:16:25.868Z,13.63
2019-01-15T22:19:32.351Z,13.73
2019-01-15T22:22:55.090Z,14.80
2019-01-15T22:26:10.361Z,14.83
2019-01-15T22:29:26.078Z,15.43
2019-01-15T22:32:32.540Z,16.67
2019-01-15T22:35:53.841Z,17.03
2019-01-15T22:39:00.303Z,16.87
2019-01-15T22:42:09.324Z,18.43
2019-01-15T22:45:27.570Z,17.77
2019-01-15T22:48:50.073Z,18.07
2019-01-15T22:51:56.533Z,19.23
2019-01-15T22:55:05.979Z,18.57
2019-01-15T22:58:27.354Z,18.57
2019-01-15T23:01:34.146Z,18.70
2019-01-15T23:04:56.671Z,19.47
2019-01-15T23:08:06.174Z,17.60
2019-01-15T23:11:21.365Z,17.87
2019-01-15T23:14:27.853Z,18.73
2019-01-15T23:17:52.419Z,18.00
2019-01-15T23:20:58.901Z,17.20
2019-01-15T23:24:05.466Z,17.48
2019-01-15T23:27:12.980Z,16.17
2019-01-15T23:30:21.975Z,15.83
2019-01-15T23:33:37.261Z,16.50
2019-01-15T23:36:59.910Z,16.77
2019-01-15T23:40:08.509Z,17.33
2019-01-15T23:43:31.983Z,16.87
2019-01-15T23:46:38.479Z,15.90
2019-01-15T23:49:47.891Z,14.43
2019-01-15T23:53:06.319Z,16.10
2019-01-15T23:56:18.651Z,14.77
2019-01-15T23:59:25.150Z,15.60
